createdAt,value
2023-12-28T00:02:23.844Z,100091.00
2023-12-28T00:04:50.468Z,100082.31
2023-12-28T00:07:17.333Z,100060.63
2023-12-28T00:09:43.987Z,100078.91
2023-12-28T00:12:10.932Z,100086.69
2023-12-28T00:14:37.892Z,100096.97
2023-12-28T00:17:05.826Z,100099.53
2023-12-28T00:19:34.905Z,100106.41
2023-12-28T00:22:01.776Z,100100.97
2023-12-28T00:24:28.516Z,100107.03
2023-12-28T00:26:55.163Z,100096.53
2023-12-28T00:29:22.431Z,100092.84
2023-12-28T00:31:49.992Z,100094.03
2023-12-28T00:34:16.669Z,100089.47
2023-12-28T00:36:43.489Z,100093.81
2023-12-28T00:39:10.900Z,100076.44
2023-12-28T00:41:37.501Z,100091.13
2023-12-28T00:44:04.556Z,100093.81
2023-12-28T00:46:31.111Z,100105.03
2023-12-28T00:48:57.831Z,100115.31
2023-12-28T00:51:24.794Z,100122.19
2023-12-28T00:53:51.792Z,100117.03
2023-12-28T00:56:18.645Z,100129.78
2023-12-28T00:58:45.439Z,100128.94
2023-12-28T01:01:12.789Z,100130.69
2023-12-28T01:03:39.694Z,100130.59
2023-12-28T01:06:06.937Z,100132.38
2023-12-28T01:08:35.367Z,100152.22
2023-12-28T01:11:03.105Z,100163.41
2023-12-28T01:13:30.473Z,100139.97
2023-12-28T01:15:57.319Z,100144.50
2023-12-28T01:18:24.376Z,100147.84
2023-12-28T01:20:51.501Z,100148.41
2023-12-28T01:23:18.263Z,100139.84
2023-12-28T01:25:45.258Z,100143.09
2023-12-28T01:28:12.113Z,100150.94
2023-12-28T01:30:38.833Z,100153.72
2023-12-28T01:33:05.997Z,100165.78
2023-12-28T01:35:32.895Z,100166.50
2023-12-28T01:38:01.561Z,100181.59
2023-12-28T01:40:28.568Z,100185.81
2023-12-28T01:42:55.279Z,100182.75
2023-12-28T01:45:22.609Z,100180.09
2023-12-28T01:47:49.978Z,100185.19
2023-12-28T01:50:17.137Z,100181.78
2023-12-28T01:52:44.630Z,100186.91
2023-12-28T01:55:11.837Z,100181.69
2023-12-28T01:57:39.464Z,100171.19
2023-12-28T02:00:07.144Z,100180.69
2023-12-28T02:02:38.926Z,100160.69
2023-12-28T02:05:06.035Z,100176.22
2023-12-28T02:07:33.815Z,100180.59
2023-12-28T02:10:00.710Z,100185.56
2023-12-28T02:12:27.768Z,100175.16
2023-12-28T02:14:54.409Z,100159.69
2023-12-28T02:17:32.231Z,100180.38
2023-12-28T02:19:59.754Z,100176.03
2023-12-28T02:22:27.938Z,100177.63
2023-12-28T02:25:10.243Z,100176.84
2023-12-28T02:27:39.878Z,100175.84
2023-12-28T02:30:08.766Z,100160.28
2023-12-28T02:32:58.337Z,100156.84
2023-12-28T02:35:32.845Z,100154.19
2023-12-28T02:38:06.730Z,100162.09
2023-12-28T02:40:38.611Z,100171.50
2023-12-28T02:43:08.987Z,100169.78
2023-12-28T02:45:36.447Z,100177.66
2023-12-28T02:48:04.488Z,100173.19
2023-12-28T02:50:32.484Z,100189.66
2023-12-28T02:52:59.704Z,100194.72
2023-12-28T02:55:26.711Z,100204.22
2023-12-28T02:57:57.378Z,100201.59
2023-12-28T03:00:24.274Z,100200.78
2023-12-28T03:02:51.309Z,100204.38
2023-12-28T03:05:19.235Z,100203.59
2023-12-28T03:07:47.074Z,100195.00
2023-12-28T03:10:14.856Z,100200.78
2023-12-28T03:12:42.519Z,100197.47
2023-12-28T03:15:09.773Z,100194.13
2023-12-28T03:17:38.713Z,100194.88
2023-12-28T03:20:06.206Z,100205.31
2023-12-28T03:22:33.003Z,100213.09
2023-12-28T03:25:00.442Z,100224.50
2023-12-28T03:27:27.344Z,100218.47
2023-12-28T03:29:53.958Z,100213.34
2023-12-28T03:32:20.816Z,100218.50
2023-12-28T03:34:47.549Z,100208.09
2023-12-28T03:37:14.434Z,100205.50
2023-12-28T03:39:41.755Z,100202.88
2023-12-28T03:42:08.637Z,100197.84
2023-12-28T03:44:35.879Z,100204.66
2023-12-28T03:47:02.729Z,100198.59
2023-12-28T03:49:29.764Z,100201.19
2023-12-28T03:51:56.955Z,100210.09
2023-12-28T03:54:23.673Z,100204.78
2023-12-28T03:56:50.740Z,100203.06
2023-12-28T03:59:17.408Z,100201.28
2023-12-28T04:01:44.614Z,100209.13
2023-12-28T04:04:11.823Z,100208.22
2023-12-28T04:06:40.062Z,100210.91
2023-12-28T04:09:07.116Z,100205.63
2023-12-28T04:11:33.834Z,100217.00
2023-12-28T04:14:00.497Z,100220.28
2023-12-28T04:16:27.401Z,100214.28
2023-12-28T04:18:54.345Z,100222.84
2023-12-28T04:21:21.537Z,100219.38
2023-12-28T04:23:48.425Z,100223.00
2023-12-28T04:26:15.686Z,100213.28
2023-12-28T04:28:42.266Z,100216.72
2023-12-28T04:31:09.730Z,100218.44
2023-12-28T04:33:36.472Z,100218.47
2023-12-28T04:36:07.402Z,100220.09
2023-12-28T04:38:35.076Z,100220.06
2023-12-28T04:41:02.376Z,100224.50
2023-12-28T04:43:29.383Z,100239.03
2023-12-28T04:45:56.281Z,100233.25
2023-12-28T04:48:25.593Z,100227.06
2023-12-28T04:50:54.217Z,100232.44
2023-12-28T04:53:21.277Z,100209.94
2023-12-28T04:55:48.195Z,100227.97
2023-12-28T04:58:15.928Z,100227.88
2023-12-28T05:00:42.656Z,100221.03
2023-12-28T05:03:09.469Z,100230.41
2023-12-28T05:05:36.157Z,100227.91
2023-12-28T05:08:03.335Z,100228.84
2023-12-28T05:10:30.150Z,100224.44
2023-12-28T05:15:26.659Z,100224.44
2023-12-28T05:17:53.947Z,100234.84
2023-12-28T05:20:20.803Z,100233.06
2023-12-28T05:22:48.066Z,100229.56
2023-12-28T05:25:14.682Z,100230.34
2023-12-28T05:27:44.231Z,100228.72
2023-12-28T05:30:13.094Z,100232.13
2023-12-28T05:32:40.284Z,100228.66
2023-12-28T05:35:07.486Z,100235.59
2023-12-28T05:37:34.370Z,100233.03
2023-12-28T05:40:01.722Z,100247.75
2023-12-28T05:42:28.586Z,100227.94
2023-12-28T05:44:55.749Z,100236.53
2023-12-28T05:47:22.641Z,100224.28
2023-12-28T05:49:49.942Z,100237.13
2023-12-28T05:52:19.753Z,100235.47
2023-12-28T05:54:47.175Z,100237.97
2023-12-28T05:57:13.926Z,100241.38
2023-12-28T05:59:44.193Z,100238.91
2023-12-28T06:02:10.844Z,100239.66
2023-12-28T06:04:38.551Z,100245.69
2023-12-28T06:07:06.377Z,100249.22
2023-12-28T06:09:33.880Z,100240.59
2023-12-28T06:12:01.455Z,100240.59
2023-12-28T06:14:28.263Z,100251.84
2023-12-28T06:16:55.389Z,100240.78
2023-12-28T06:19:22.919Z,100243.22
2023-12-28T06:21:50.044Z,100239.06
2023-12-28T06:24:17.032Z,100251.38
2023-12-28T06:26:44.708Z,100250.63
2023-12-28T06:29:11.920Z,100257.47
2023-12-28T06:31:39.272Z,100260.13
2023-12-28T06:34:07.803Z,100270.50
2023-12-28T06:36:34.922Z,100265.41
2023-12-28T06:39:02.169Z,100259.31
2023-12-28T06:41:28.953Z,100266.06
2023-12-28T06:43:55.952Z,100251.19
2023-12-28T06:46:22.932Z,100266.72
2023-12-28T06:48:50.239Z,100266.66
2023-12-28T06:51:21.557Z,100273.75
2023-12-28T06:53:50.454Z,100270.06
2023-12-28T06:56:18.987Z,100264.16
2023-12-28T06:58:46.136Z,100266.56
2023-12-28T07:01:13.959Z,100264.94
2023-12-28T07:03:42.013Z,100271.03
2023-12-28T07:06:10.204Z,100270.06
2023-12-28T07:08:37.833Z,100282.22
2023-12-28T07:11:05.582Z,100268.38
2023-12-28T07:13:33.818Z,100275.25
2023-12-28T07:16:01.857Z,100283.94
2023-12-28T07:18:29.811Z,100272.06
2023-12-28T07:20:57.206Z,100281.59
2023-12-28T07:23:23.991Z,100283.25
2023-12-28T07:25:50.822Z,100288.41
2023-12-28T07:28:17.524Z,100288.44
2023-12-28T07:30:44.548Z,100294.75
2023-12-28T07:33:12.282Z,100309.34
2023-12-28T07:35:39.006Z,100314.56
2023-12-28T07:38:05.869Z,100315.56
2023-12-28T07:40:32.428Z,100326.75
2023-12-28T07:42:59.685Z,100319.06
2023-12-28T07:45:26.902Z,100323.34
2023-12-28T07:47:54.230Z,100321.56
2023-12-28T07:50:22.011Z,100328.34
2023-12-28T07:52:50.269Z,100317.16
2023-12-28T07:55:17.414Z,100313.56
2023-12-28T07:57:45.057Z,100311.88
2023-12-28T08:00:12.297Z,100323.91
2023-12-28T08:02:39.484Z,100322.13
2023-12-28T08:05:07.108Z,100322.13
2023-12-28T08:07:34.397Z,100328.19
2023-12-28T08:10:02.215Z,100327.41
2023-12-28T08:12:29.486Z,100336.13
2023-12-28T08:14:57.416Z,100330.09
2023-12-28T08:17:25.111Z,100319.88
2023-12-28T08:19:52.440Z,100321.34
2023-12-28T08:22:20.116Z,100323.13
2023-12-28T08:24:47.016Z,100318.88
2023-12-28T08:27:14.315Z,100316.31
2023-12-28T08:29:43.037Z,100325.75
2023-12-28T08:32:09.778Z,100323.31
2023-12-28T08:34:36.680Z,100329.31
2023-12-28T08:37:03.547Z,100330.25
2023-12-28T08:39:30.368Z,100333.69
2023-12-28T08:41:57.421Z,100338.88
2023-12-28T08:44:24.244Z,100340.69
2023-12-28T08:46:50.864Z,100342.44
2023-12-28T08:49:17.793Z,100335.47
2023-12-28T08:51:45.442Z,100334.53
2023-12-28T08:54:12.159Z,100343.13
2023-12-28T08:56:39.171Z,100333.63
2023-12-28T08:59:06.136Z,100339.56
2023-12-28T09:01:34.056Z,100336.16
2023-12-28T09:04:01.413Z,100340.50
2023-12-28T09:06:28.533Z,100347.41
2023-12-28T09:08:58.219Z,100340.34
2023-12-28T09:11:25.179Z,100353.22
2023-12-28T09:13:52.325Z,100344.47
2023-12-28T09:16:19.371Z,100344.44
2023-12-28T09:18:46.804Z,100346.13
2023-12-28T09:21:14.125Z,100343.53
2023-12-28T09:23:42.439Z,100342.66
2023-12-28T09:26:09.792Z,100341.81
2023-12-28T09:28:37.053Z,100336.53
2023-12-28T09:31:05.990Z,100337.25
2023-12-28T09:33:32.984Z,100341.63
2023-12-28T09:36:00.000Z,100346.84
2023-12-28T09:38:28.390Z,100338.91
2023-12-28T09:40:56.803Z,100334.63
2023-12-28T09:43:31.913Z,100335.34
2023-12-28T09:45:58.565Z,100340.53
2023-12-28T09:48:25.550Z,100339.47
2023-12-28T09:50:56.695Z,100338.56
2023-12-28T09:53:27.769Z,100346.22
2023-12-28T09:55:54.938Z,100336.59
2023-12-28T09:58:23.511Z,100334.34
2023-12-28T10:00:52.343Z,100336.81
2023-12-28T10:03:21.123Z,100338.06
2023-12-28T10:05:48.656Z,100335.75
2023-12-28T10:08:17.317Z,100339.09
2023-12-28T10:10:52.706Z,100342.72
2023-12-28T10:13:19.472Z,100333.97
2023-12-28T10:15:46.558Z,100339.34
2023-12-28T10:18:13.834Z,100336.63
2023-12-28T10:20:40.939Z,100326.25
2023-12-28T10:23:08.652Z,100334.06
2023-12-28T10:25:36.375Z,100331.44
2023-12-28T10:28:09.993Z,100325.31
2023-12-28T10:30:37.000Z,100315.63
2023-12-28T10:33:07.385Z,100317.41
2023-12-28T10:35:35.240Z,100312.16
2023-12-28T10:38:04.888Z,100293.69
2023-12-28T10:40:36.540Z,100288.00
2023-12-28T10:43:07.990Z,100285.56
2023-12-28T10:45:37.013Z,100279.91
2023-12-28T10:48:09.074Z,100284.66
2023-12-28T10:50:51.889Z,100285.59
2023-12-28T10:53:37.215Z,100284.03
2023-12-28T10:56:23.634Z,100278.53
2023-12-28T10:58:54.316Z,100282.72
2023-12-28T11:01:29.725Z,100278.25
2023-12-28T11:04:05.489Z,100290.13
2023-12-28T11:06:33.623Z,100285.75
2023-12-28T11:09:02.520Z,100290.72
2023-12-28T11:11:31.255Z,100292.97
2023-12-28T11:14:01.419Z,100300.50
2023-12-28T11:16:29.876Z,100302.03
2023-12-28T11:18:57.912Z,100310.06
2023-12-28T11:21:25.821Z,100313.03
2023-12-28T11:23:53.724Z,100310.34
2023-12-28T11:26:22.683Z,100318.78
2023-12-28T11:28:49.531Z,100315.09
2023-12-28T11:31:17.462Z,100314.72
2023-12-28T11:33:49.137Z,100322.28
2023-12-28T11:36:36.722Z,100307.53
2023-12-28T11:39:06.621Z,100301.38
2023-12-28T11:41:35.390Z,100307.66
2023-12-28T11:44:06.419Z,100305.78
2023-12-28T11:46:34.419Z,100314.72
2023-12-28T11:49:10.193Z,100307.81
2023-12-28T11:51:40.909Z,100308.78
2023-12-28T11:54:08.826Z,100304.59
2023-12-28T11:56:35.778Z,100304.75
2023-12-28T11:59:02.448Z,100298.66
2023-12-28T12:01:29.780Z,100301.53
2023-12-28T12:03:56.885Z,100292.81
2023-12-28T12:06:25.647Z,100296.25
2023-12-28T12:08:52.511Z,100286.63
2023-12-28T12:11:20.124Z,100286.56
2023-12-28T12:13:48.142Z,100285.66
2023-12-28T12:16:15.642Z,100290.97
2023-12-28T12:18:42.798Z,100283.06
2023-12-28T12:21:09.414Z,100290.88
2023-12-28T12:23:38.516Z,100275.88
2023-12-28T12:26:08.901Z,100286.34
2023-12-28T12:28:36.617Z,100290.72
2023-12-28T12:31:04.664Z,100275.97
2023-12-28T12:33:32.642Z,100278.44
2023-12-28T12:35:59.555Z,100288.91
2023-12-28T12:38:26.244Z,100267.94
2023-12-28T12:40:54.313Z,100276.78
2023-12-28T12:43:21.745Z,100268.84
2023-12-28T12:45:49.492Z,100269.66
2023-12-28T12:48:17.058Z,100277.47
2023-12-28T12:50:45.369Z,100267.88
2023-12-28T12:53:15.645Z,100266.94
2023-12-28T12:55:46.948Z,100255.44
2023-12-28T12:58:14.582Z,100252.81
2023-12-28T13:00:41.596Z,100250.03
2023-12-28T13:03:11.521Z,100248.34
2023-12-28T13:05:42.705Z,100244.66
2023-12-28T13:08:09.849Z,100238.59
2023-12-28T13:10:37.653Z,100239.34
2023-12-28T13:13:08.393Z,100248.88
2023-12-28T13:15:35.430Z,100249.53
2023-12-28T13:18:02.395Z,100252.06
2023-12-28T13:20:29.340Z,100247.13
2023-12-28T13:22:55.898Z,100251.59
2023-12-28T13:25:22.998Z,100252.34
2023-12-28T13:27:50.120Z,100253.28
2023-12-28T13:30:16.799Z,100251.59
2023-12-28T13:32:43.454Z,100264.63
2023-12-28T13:35:10.314Z,100263.88
2023-12-28T13:37:37.186Z,100265.84
2023-12-28T13:40:04.601Z,100265.97
2023-12-28T13:42:31.275Z,100265.91
2023-12-28T13:44:57.883Z,100262.41
2023-12-28T13:47:24.822Z,100258.09
2023-12-28T13:49:51.722Z,100265.06
2023-12-28T13:52:18.624Z,100277.41
2023-12-28T13:54:45.532Z,100259.06
2023-12-28T13:57:12.611Z,100259.16
2023-12-28T13:59:39.226Z,100262.72
2023-12-28T14:02:06.318Z,100264.44
2023-12-28T14:04:33.367Z,100264.53
2023-12-28T14:07:00.521Z,100261.97
2023-12-28T14:09:27.400Z,100260.28
2023-12-28T14:11:55.094Z,100260.28
2023-12-28T14:14:22.250Z,100257.88
2023-12-28T14:16:49.362Z,100262.13
2023-12-28T14:19:16.303Z,100257.81
2023-12-28T14:21:47.301Z,100269.38
2023-12-28T14:24:16.409Z,100271.03
2023-12-28T14:26:44.477Z,100270.34
2023-12-28T14:29:11.939Z,100272.91
2023-12-28T14:31:39.198Z,100277.31
2023-12-28T14:34:06.785Z,100279.03
2023-12-28T14:36:36.360Z,100272.09
2023-12-28T14:39:08.713Z,100273.75
2023-12-28T14:41:36.693Z,100278.00
2023-12-28T14:44:04.103Z,100269.44
2023-12-28T14:46:32.372Z,100275.53
2023-12-28T14:48:59.569Z,100276.31
2023-12-28T14:51:26.513Z,100277.16
2023-12-28T14:53:53.368Z,100274.53
2023-12-28T14:56:20.018Z,100271.25
2023-12-28T14:58:48.148Z,100278.28
2023-12-28T15:01:17.314Z,100280.75
2023-12-28T15:03:45.055Z,100274.03
2023-12-28T15:06:12.417Z,100276.50
2023-12-28T15:08:39.330Z,100275.00
2023-12-28T15:11:09.295Z,100278.41
2023-12-28T15:13:36.519Z,100268.78
2023-12-28T15:16:04.606Z,100276.50
2023-12-28T15:18:32.542Z,100267.03
2023-12-28T15:20:59.747Z,100272.19
2023-12-28T15:23:28.357Z,100279.31
2023-12-28T15:25:55.720Z,100278.38
2023-12-28T15:28:23.072Z,100267.16
2023-12-28T15:30:49.811Z,100274.97
2023-12-28T15:33:17.474Z,100270.94
2023-12-28T15:35:44.865Z,100271.47
2023-12-28T15:38:12.844Z,100281.22
2023-12-28T15:40:39.658Z,100277.66
2023-12-28T15:43:06.827Z,100270.13
2023-12-28T15:45:35.739Z,100272.59
2023-12-28T15:48:02.805Z,100260.22
2023-12-28T15:50:29.971Z,100265.59
2023-12-28T15:52:58.045Z,100258.88
2023-12-28T15:55:25.142Z,100259.53
2023-12-28T15:57:52.015Z,100263.00
2023-12-28T16:00:20.604Z,100263.88
2023-12-28T16:02:47.173Z,100257.88
2023-12-28T16:05:14.371Z,100258.69
2023-12-28T16:07:41.341Z,100256.22
2023-12-28T16:10:08.615Z,100262.28
2023-12-28T16:12:35.583Z,100251.81
2023-12-28T16:15:02.954Z,100253.47
2023-12-28T16:17:30.075Z,100253.66
2023-12-28T16:19:57.174Z,100250.09
2023-12-28T16:22:24.541Z,100244.84
2023-12-28T16:24:51.167Z,100238.72
2023-12-28T16:27:19.225Z,100242.38
2023-12-28T16:29:46.097Z,100242.47
2023-12-28T16:32:12.788Z,100235.44
2023-12-28T16:34:40.015Z,100236.72
2023-12-28T16:37:06.763Z,100240.03
2023-12-28T16:39:33.487Z,100241.88
2023-12-28T16:42:00.176Z,100240.13
2023-12-28T16:44:26.980Z,100246.22
2023-12-28T16:46:54.225Z,100238.31
2023-12-28T16:49:21.129Z,100245.25
2023-12-28T16:51:49.585Z,100236.41
2023-12-28T16:54:18.852Z,100229.69
2023-12-28T16:56:45.644Z,100235.06
2023-12-28T16:59:12.259Z,100235.31
2023-12-28T17:01:43.749Z,100232.69
2023-12-28T17:04:11.940Z,100229.38
2023-12-28T17:06:41.072Z,100235.63
2023-12-28T17:09:10.769Z,100246.16
2023-12-28T17:11:43.549Z,100243.78
2023-12-28T17:14:18.622Z,100243.81
2023-12-28T17:16:46.028Z,100245.56
2023-12-28T17:19:14.536Z,100234.41
2023-12-28T17:21:44.811Z,100238.03
2023-12-28T17:24:20.027Z,100239.03
2023-12-28T17:26:49.172Z,100227.84
2023-12-28T17:29:20.316Z,100224.56
2023-12-28T17:31:49.838Z,100222.88
2023-12-28T17:34:16.798Z,100214.50
2023-12-28T17:36:46.973Z,100212.94
2023-12-28T17:39:14.519Z,100216.59
2023-12-28T17:41:42.802Z,100211.59
2023-12-28T17:44:17.626Z,100209.91
2023-12-28T17:46:54.030Z,100212.69
2023-12-28T17:49:30.171Z,100215.09
2023-12-28T17:51:59.516Z,100212.50
2023-12-28T17:54:26.972Z,100214.22
2023-12-28T17:56:57.750Z,100223.84
2023-12-28T17:59:29.889Z,100222.91
2023-12-28T18:01:59.980Z,100224.78
2023-12-28T18:04:26.826Z,100225.59
2023-12-28T18:06:54.270Z,100228.97
2023-12-28T18:09:23.278Z,100223.75
2023-12-28T18:11:53.514Z,100219.63
2023-12-28T18:14:22.206Z,100214.16
2023-12-28T18:16:50.103Z,100221.31
2023-12-28T18:19:16.925Z,100213.53
2023-12-28T18:21:43.846Z,100217.06
2023-12-28T18:24:11.392Z,100213.59
2023-12-28T18:26:38.341Z,100209.34
2023-12-28T18:29:05.094Z,100194.56
2023-12-28T18:31:31.994Z,100217.13
2023-12-28T18:33:59.073Z,100218.06
2023-12-28T18:36:25.819Z,100219.75
2023-12-28T18:38:52.632Z,100212.03
2023-12-28T18:41:19.455Z,100205.03
2023-12-28T18:43:46.513Z,100209.22
2023-12-28T18:46:13.623Z,100200.53
2023-12-28T18:48:40.566Z,100197.16
2023-12-28T18:51:09.714Z,100206.50
2023-12-28T18:53:36.924Z,100200.44
2023-12-28T18:56:04.345Z,100205.50
2023-12-28T18:58:31.166Z,100203.75
2023-12-28T19:00:58.124Z,100194.22
2023-12-28T19:03:29.597Z,100202.09
2023-12-28T19:05:56.689Z,100191.56
2023-12-28T19:08:23.607Z,100195.19
2023-12-28T19:10:50.245Z,100191.75
2023-12-28T19:13:17.203Z,100188.16
2023-12-28T19:15:43.776Z,100188.97
2023-12-28T19:18:11.547Z,100185.53
2023-12-28T19:20:38.422Z,100194.91
2023-12-28T19:23:05.202Z,100186.31
2023-12-28T19:25:32.296Z,100188.94
2023-12-28T19:27:59.715Z,100181.09
2023-12-28T19:30:26.545Z,100184.53
2023-12-28T19:32:53.571Z,100179.16
2023-12-28T19:35:20.199Z,100173.22
2023-12-28T19:37:47.386Z,100175.75
2023-12-28T19:40:14.379Z,100181.59
2023-12-28T19:42:40.928Z,100173.72
2023-12-28T19:45:08.373Z,100177.41
2023-12-28T19:47:35.351Z,100173.91
2023-12-28T19:50:02.542Z,100164.34
2023-12-28T19:52:29.549Z,100172.22
2023-12-28T19:54:57.517Z,100177.47
2023-12-28T19:57:24.204Z,100160.25
2023-12-28T19:59:52.366Z,100159.28
2023-12-28T20:02:20.905Z,100157.53
2023-12-28T20:04:47.842Z,100158.53
2023-12-28T20:07:15.822Z,100161.72
2023-12-28T20:09:42.569Z,100153.28
2023-12-28T20:12:09.444Z,100159.50
2023-12-28T20:14:36.272Z,100161.06
2023-12-28T20:17:04.119Z,100152.47
2023-12-28T20:19:31.064Z,100155.78
2023-12-28T20:21:58.325Z,100146.19
2023-12-28T20:24:25.210Z,100149.81
2023-12-28T20:26:51.881Z,100150.50
2023-12-28T20:29:18.550Z,100142.56
2023-12-28T20:31:45.410Z,100150.38
2023-12-28T20:34:12.340Z,100149.38
2023-12-28T20:36:39.550Z,100147.50
2023-12-28T20:39:07.629Z,100141.53
2023-12-28T20:41:34.315Z,100142.50
2023-12-28T20:44:02.030Z,100147.47
2023-12-28T20:46:30.208Z,100151.06
2023-12-28T20:48:58.924Z,100145.59
2023-12-28T20:51:26.812Z,100149.19
2023-12-28T20:53:53.952Z,100147.44
2023-12-28T20:56:20.875Z,100138.03
2023-12-28T20:58:48.529Z,100127.53
2023-12-28T21:01:15.651Z,100136.97
2023-12-28T21:03:44.086Z,100142.19
2023-12-28T21:06:10.981Z,100135.47
2023-12-28T21:08:39.061Z,100129.25
2023-12-28T21:11:05.785Z,100128.47
2023-12-28T21:13:39.451Z,100117.34
2023-12-28T21:16:10.829Z,100106.22
2023-12-28T21:18:38.198Z,100120.94
2023-12-28T21:21:10.925Z,100123.53
2023-12-28T21:23:42.152Z,100113.84
2023-12-28T21:26:09.482Z,100100.78
2023-12-28T21:28:37.007Z,100107.66
2023-12-28T21:31:04.297Z,100105.09
2023-12-28T21:33:31.736Z,100103.25
2023-12-28T21:35:58.770Z,100102.50
2023-12-28T21:38:25.604Z,100100.69
2023-12-28T21:40:52.210Z,100100.88
2023-12-28T21:43:18.937Z,100100.22
2023-12-28T21:45:51.216Z,100091.56
2023-12-28T21:48:18.890Z,100096.75
2023-12-28T21:50:45.636Z,100100.25
2023-12-28T21:53:13.182Z,100103.75
2023-12-28T21:55:46.586Z,100103.84
2023-12-28T21:58:13.418Z,100106.41
2023-12-28T22:00:40.858Z,100105.47
2023-12-28T22:03:07.682Z,100104.50
2023-12-28T22:05:35.615Z,100105.19
2023-12-28T22:08:03.465Z,100101.69
2023-12-28T22:10:31.900Z,100103.63
2023-12-28T22:12:58.686Z,100090.56
2023-12-28T22:15:25.298Z,100082.72
2023-12-28T22:17:52.134Z,100093.94
2023-12-28T22:20:20.682Z,100077.47
2023-12-28T22:22:47.314Z,100076.56
2023-12-28T22:25:14.517Z,100071.47
2023-12-28T22:27:41.495Z,100083.63
2023-12-28T22:30:08.411Z,100069.75
2023-12-28T22:32:35.436Z,100062.69
2023-12-28T22:35:02.657Z,100061.84
2023-12-28T22:37:30.050Z,100060.06
2023-12-28T22:39:57.164Z,100056.69
2023-12-28T22:42:26.661Z,100051.19
2023-12-28T22:44:54.609Z,100040.88
2023-12-28T22:47:24.938Z,100046.91
2023-12-28T22:49:51.872Z,100033.22
2023-12-28T22:52:18.565Z,100037.53
2023-12-28T22:54:45.829Z,100046.69
2023-12-28T22:57:12.967Z,100046.00
2023-12-28T22:59:43.943Z,100042.50
2023-12-28T23:02:10.957Z,100050.25
2023-12-28T23:04:46.680Z,100037.34
2023-12-28T23:07:20.457Z,100036.59
2023-12-28T23:09:47.374Z,100027.97
2023-12-28T23:12:13.956Z,100016.63
2023-12-28T23:14:40.564Z,100017.63
2023-12-28T23:17:07.832Z,100018.56
2023-12-28T23:19:34.721Z,100024.56
2023-12-28T23:22:01.888Z,100010.59
2023-12-28T23:24:28.598Z,100005.47
2023-12-28T23:26:56.460Z,100014.06
2023-12-28T23:29:23.043Z,100009.72
2023-12-28T23:31:49.861Z,100007.91
2023-12-28T23:34:25.414Z,100004.66
2023-12-28T23:36:56.506Z,99984.41
2023-12-28T23:39:23.163Z,99990.50
2023-12-28T23:41:50.177Z,99991.66
2023-12-28T23:44:18.271Z,99991.53
2023-12-28T23:46:45.601Z,99977.75
2023-12-28T23:49:12.619Z,99975.09
2023-12-28T23:51:39.789Z,99972.47
2023-12-28T23:54:06.770Z,99974.28
2023-12-28T23:56:34.396Z,99966.63
2023-12-28T23:59:00.956Z,99963.19
